Ogunquit, ME

2:19 PM EDT on August 30, 2014 (GMT -0400)
Portland International | Change Station
CLOSE
Current Station
Airport
Location: Portland,
Elevation: 62 ft
Nearby Weather Stations

Elev 62 ft 43.64 °N, 70.30 °W | Updated 28 minutes ago

Mostly Cloudy
Mostly Cloudy
69 °F
Feels Like 69 °F
N
17
Wind Variable Wind from SSW
Gusts 24 mph

Today
High -- | Low -- °F
--% Chance of Precip.
Yesterday
High -- | Low -- °F
Precip. -- in
6:04 AM 7:20 PM
Waxing Crescent, 23% visible
Pressure 30.21 in
Visibility 10.0 miles
Clouds Scattered Clouds 3000 ft
Mostly Cloudy 25000 ft
Dew Point 58 °F
Humidity 68%
Rainfall 0.00 in
Snow Depth Not available.
UV 4 out of 12
Pollen 7.60 out of 12
Ozone Good
Flu Activity Not available.
METAR KPWM 301751Z 20015G21KT 10SM SCT030 BKN250 21/14 A3021 RMK AO2 SLP230 T02060144 10211 20150 58017

More Conditions Fewer Conditions

Pressure 30.21 in
Visibility 10.0 miles
Clouds Scattered Clouds 3000 ft
Mostly Cloudy 25000 ft
Dew Point 58 °F
Humidity 68%
Rainfall 0.00 in
Snow Depth Not available.
UV 4 out of 12
Pollen 7.60 out of 12
Ozone Good
Flu Activity Not available.
METAR KPWM 301751Z 20015G21KT 10SM SCT030 BKN250 21/14 A3021 RMK AO2 SLP230 T02060144 10211 20150 58017

More Conditions Fewer Conditions

10-Day Weather Forecast

Almanac

Astronomy

Aug. 30, 2014 Rise Set
Actual Time 6:04 AM EDT 7:20 PM EDT
Civil Twilight 5:34 AM EDT 7:50 PM EDT
Nautical Twilight 4:59 AM EDT 8:25 PM EDT
Astronomical Twilight 4:21 AM EDT 9:02 PM EDT
Moon 10:57 AM EDT 9:43 PM EDT
Length of Visible Light 14h 15m
Length of Day
13h 16m
Tomorrow will be 2m 49s shorter.
Waxing Crescent, 23% of the Moon is Illuminated
Today
Waxing Crescent
Sep 2
First Quarter
Sep 8
Full
Sep 15
Last Quarter
Sep 24
New

Today's Extremes

State Highs State Lows

Community

WunderPhotos

Upload Photos

1,748,583 photos uploaded!

WunderBlogs® & News

Nearby

Air Quality

  Air Quality AQ Index Pollutant
Yesterday Good
OZONE
Current Good
OZONE
Saturday Good
OZONE
Saturday Good
PM2.5
Sunday Good
OZONE
Sunday Good
PM2.5
Monday Good
OZONE
Monday Good
PM2.5
Tuesday Good
OZONE
Tuesday Good
PM2.5
Wednesday Good
OZONE
Wednesday Good
PM2.5

Snow Depth

Station Depth Elevation
No new snow has been reported.

Earthquake Activity

City Distance Mag. Time & Date
No recent earthquake activity has been reported nearby.
Minimum magnitude displayed is 2.5.

Coastal Water Temperatures

Place Temperature
Wells, ME 61.0 °F
Portland, ME 60.1 °F

Nearby Weather Stations